Karelia II — UFMR — position and weather

sailwx.info

Track history (hours):
 
Tides and Currents Weather Stations Pressure Air Temp Water Temp Dewpoint Dewpoint Depression Visibility Wind Speed Wind Dir Waves Ship Positions

Karelia II

Last reported at 2018-Apr-01 13:39 UTC. Time now 2018-Apr-21 09:54 UTC.
Position N 70°42' E 019°10'.
Warning: this ship's position is 19 days out of date.

Length 60 m; draft 8 m.

Type: Fishing. MMSI: 273425330.

Date/timePositionNaut miles runAvg speedWind from/ knotsBaromVisibWave heightAir tempDewpointWater temp
2018-Apr-01 13:39N 70°42' E 019°10'211.7
2018-Apr-01 13:30N 70°40' E 019°07'611.8
2018-Apr-01 13:00N 70°36' E 018°54'14 0.6
2018-Mar-31 12:01N 70°25' E 018°26'0 4.6
2018-Mar-31 12:00N 70°25' E 018°26'  
2018-Mar-28 19:54N 69°54' E 016°40'1 3.3
2018-Mar-28 19:29N 69°53' E 016°39'2 0.7
2018-Mar-28 17:15N 69°54' E 016°41'0 0.3
2018-Mar-28 15:51N 69°54' E 016°42'4 2.5
2018-Mar-28 14:22N 69°56' E 016°51'1 3.8
2018-Mar-28 13:59N 69°56' E 016°55'2 3.9
2018-Mar-28 13:30N 69°55' E 016°60'1 1.7
2018-Mar-28 13:00N 69°56' E 016°58'2 4.0
2018-Mar-28 12:30N 69°57' E 016°52'1 1.5
2018-Mar-28 11:46N 69°56' E 016°49'0 2.0
2018-Mar-28 11:30N 69°56' E 016°51'2 4.0
2018-Mar-28 11:00N 69°56' E 016°56'2 4.1
2018-Mar-28 10:30N 69°56' E 017°02'1 1.2
2018-Mar-28 09:59N 69°56' E 017°01'2 3.9
2018-Mar-28 09:30N 69°56' E 016°55'2 3.3
2018-Mar-28 09:00N 69°57' E 016°60'1 2.1
2018-Mar-28 08:30N 69°56' E 017°02'2 3.5
2018-Mar-28 08:00N 69°56' E 017°06'2 3.9
2018-Mar-28 07:30N 69°55' E 017°11'1 2.5
2018-Mar-28 06:59N 69°54' E 017°10'2 3.9
2018-Mar-28 06:30N 69°54' E 017°04'1 1.7
2018-Mar-28 06:00N 69°53' E 017°05'2 3.9
2018-Mar-28 05:28N 69°54' E 017°11'1 1.6
2018-Mar-28 05:00N 69°54' E 017°08'1 2.5
2018-Mar-28 04:30N 69°53' E 017°05'2 4.2
2018-Mar-28 04:00N 69°53' E 016°59'1 2.1
2018-Mar-28 03:30N 69°53' E 017°02'2 3.8
2018-Mar-28 02:59N 69°54' E 017°07'2 4.1
2018-Mar-28 02:30N 69°54' E 017°13'2 3.8
2018-Mar-28 02:00N 69°52' E 017°12'2 3.5
2018-Mar-28 01:30N 69°51' E 017°12'2 4.1
2018-Mar-28 01:00N 69°52' E 017°14'2 3.2
2018-Mar-28 00:30N 69°52' E 017°10'0 0.6
2018-Mar-28 00:00N 69°51' E 017°11'2 3.9
2018-Mar-27 23:30N 69°53' E 017°12'4 7.7
2018-Mar-27 23:00N 69°57' E 017°16'510.9
2018-Mar-27 22:30N 70°01' E 017°25'43 7.9
2018-Mar-27 17:02N 70°34' E 018°47'0 3.9
2018-Mar-27 17:00N 70°34' E 018°47'2 3.6
2018-Mar-27 16:30N 70°35' E 018°53'2 3.9
2018-Mar-27 16:00N 70°36' E 018°58'2 3.6
2018-Mar-27 15:30N 70°34' E 019°02'2 3.5
2018-Mar-27 15:00N 70°34' E 019°07'2 4.1
2018-Mar-27 14:29N 70°33' E 019°13'2 3.3
2018-Mar-27 14:00N 70°34' E 019°09'2 3.5
2018-Mar-27 13:30N 70°34' E 019°04'2 4.0
2018-Mar-27 13:00N 70°34' E 018°58'2 3.9
2018-Mar-27 12:30N 70°35' E 018°52'2 3.5
2018-Mar-27 11:59N 70°34' E 018°47'2 4.1
2018-Mar-27 11:29N 70°32' E 018°45'2 3.2
2018-Mar-27 11:00N 70°31' E 018°41'1 2.3
2018-Mar-27 10:29N 70°30' E 018°38'2 3.2
2018-Mar-27 10:00N 70°29' E 018°38'2 3.2
2018-Mar-27 09:30N 70°27' E 018°37'2 3.9
2018-Mar-27 09:00N 70°26' E 018°33'2 4.1
2018-Mar-27 08:30N 70°25' E 018°27'1 0.0
2018-Mar-26 10:34N 70°25' E 018°24'0 2.6
2018-Mar-26 10:31N 70°25' E 018°24'0 0.2
2018-Mar-26 08:43N 70°25' E 018°25'1 3.7
2018-Mar-26 08:30N 70°25' E 018°27'2 4.0
2018-Mar-26 08:00N 70°27' E 018°31'2 4.0
2018-Mar-26 07:30N 70°28' E 018°34'3 1.6
2018-Mar-26 05:30N 70°31' E 018°39'2 3.5
2018-Mar-26 05:00N 70°32' E 018°44'2 3.6
2018-Mar-26 04:30N 70°33' E 018°45'2 3.6
2018-Mar-26 04:00N 70°34' E 018°50'2 3.6
2018-Mar-26 03:30N 70°35' E 018°55'2 3.7
2018-Mar-26 02:59N 70°35' E 019°01'2 3.6
2018-Mar-26 02:30N 70°34' E 019°06'2 3.7
2018-Mar-26 02:00N 70°34' E 019°11'1 1.8
2018-Mar-26 01:31N 70°33' E 019°10'1 2.4
2018-Mar-26 01:00N 70°34' E 019°07'2 3.8
2018-Mar-26 00:29N 70°35' E 019°02'2 3.8
2018-Mar-26 00:00N 70°36' E 018°57'2 3.5
2018-Mar-25 23:23N 70°36' E 018°50'1 3.5
2018-Mar-25 22:59N 70°35' E 018°54'2 3.5
2018-Mar-25 22:30N 70°37' E 018°57'1 1.7
2018-Mar-25 22:00N 70°36' E 018°58'2 3.5
2018-Mar-25 21:30N 70°35' E 018°54'2 3.5
2018-Mar-25 21:00N 70°33' E 018°50'2 3.9
2018-Mar-25 20:30N 70°32' E 018°45'1 0.2
2018-Mar-25 17:17N 70°33' E 018°44'1 3.7
2018-Mar-25 16:59N 70°33' E 018°47'2 3.6
2018-Mar-25 16:30N 70°33' E 018°52'1 2.9
2018-Mar-25 16:00N 70°32' E 018°56'2 3.1
2018-Mar-25 15:30N 70°31' E 019°00'2 4.0
2018-Mar-25 15:00N 70°33' E 018°55'1 2.8
2018-Mar-25 14:30N 70°33' E 018°51'2 3.8
2018-Mar-25 14:00N 70°33' E 018°46'42 6.2
2018-Mar-25 07:17N 70°03' E 017°21'310.0
2018-Mar-25 07:00N 70°01' E 017°16'510.2
2018-Mar-25 06:29N 69°56' E 017°08'5 9.9
2018-Mar-25 06:00N 69°52' E 017°02'5 9.9
2018-Mar-25 05:30N 69°47' E 016°57'2 3.5
2018-Mar-25 04:59N 69°45' E 016°55'2 3.4
2018-Mar-25 04:29N 69°45' E 016°50'2 3.7
2018-Mar-25 04:00N 69°45' E 016°45'2 3.1
2018-Mar-25 03:29N 69°45' E 016°41'1 1.9
2018-Mar-25 03:00N 69°45' E 016°43'1 1.9
2018-Mar-25 02:30N 69°44' E 016°41'2 3.8
2018-Mar-25 02:00N 69°46' E 016°40'2 4.1
2018-Mar-25 01:30N 69°46' E 016°45'2 4.3
2018-Mar-25 00:59N 69°46' E 016°52'2 3.5
2018-Mar-25 00:30N 69°47' E 016°56'1 1.3
2018-Mar-24 23:59N 69°47' E 016°58'2 4.0
2018-Mar-24 23:30N 69°47' E 016°53'2 3.9
2018-Mar-24 23:00N 69°48' E 016°47'2 4.1
2018-Mar-24 22:30N 69°48' E 016°42'1 2.8
2018-Mar-24 22:00N 69°47' E 016°43'2 3.8
2018-Mar-24 21:29N 69°46' E 016°49'2 3.8
2018-Mar-24 21:00N 69°46' E 016°54'2 3.7
2018-Mar-24 20:30N 69°46' E 016°59'1 2.8
2018-Mar-24 20:00N 69°47' E 016°56'1 1.2
2018-Mar-24 19:30N 69°47' E 016°57'2 3.7
2018-Mar-24 19:00N 69°45' E 016°58'1 2.6
2018-Mar-24 18:29N 69°45' E 016°55'1 2.9
2018-Mar-24 18:00N 69°45' E 016°51'2 3.5
2018-Mar-24 17:29N 69°45' E 016°46'2 3.1
2018-Mar-24 16:59N 69°45' E 016°42'1 2.9
2018-Mar-24 16:30N 69°45' E 016°46'2 3.1
2018-Mar-24 16:00N 69°44' E 016°41'2 3.7
2018-Mar-24 15:30N 69°46' E 016°39'2 3.6
2018-Mar-24 15:00N 69°48' E 016°38'2 3.7
2018-Mar-24 14:29N 69°50' E 016°38'2 3.9
2018-Mar-24 14:00N 69°52' E 016°38'2 4.5
2018-Mar-24 13:30N 69°53' E 016°42'1 2.2
2018-Mar-24 13:00N 69°54' E 016°44'2 3.9
2018-Mar-24 12:29N 69°54' E 016°38'2 3.8
2018-Mar-24 12:00N 69°52' E 016°37'2 4.1
2018-Mar-24 11:30N 69°50' E 016°38'2 3.8
2018-Mar-24 11:00N 69°48' E 016°40'2 3.3
2018-Mar-24 10:30N 69°47' E 016°41'2 4.0
2018-Mar-24 10:00N 69°47' E 016°46'1 2.9
2018-Mar-24 09:29N 69°47' E 016°42'2 3.2
2018-Mar-24 09:00N 69°48' E 016°38'2 3.8
2018-Mar-24 08:30N 69°49' E 016°41'5 9.1
2018-Mar-24 08:00N 69°52' E 016°52'611.4
2018-Mar-24 07:30N 69°55' E 017°06'611.2
2018-Mar-24 07:00N 69°59' E 017°15'13 1.2
2018-Mar-23 20:43N 69°54' E 016°41'1 3.6
2018-Mar-23 20:30N 69°54' E 016°39'2 3.7
2018-Mar-23 20:00N 69°52' E 016°39'2 4.3
2018-Mar-23 19:29N 69°50' E 016°39'4 8.7
2018-Mar-23 19:00N 69°45' E 016°39'2 4.5
2018-Mar-23 18:29N 69°47' E 016°44'3 7.2
2018-Mar-23 18:00N 69°50' E 016°49'4 8.1
2018-Mar-23 17:30N 69°54' E 016°54'3 5.8
2018-Mar-23 17:00N 69°51' E 016°55'1 1.2
2018-Mar-23 16:30N 69°50' E 016°55'2 3.1
2018-Mar-23 16:00N 69°49' E 016°57'1 2.4
2018-Mar-23 15:30N 69°48' E 016°56'1 2.9
2018-Mar-23 14:59N 69°47' E 016°52'2 3.4
2018-Mar-23 14:30N 69°46' E 016°48'2 3.2
2018-Mar-23 14:00N 69°45' E 016°44'0 0.6
2018-Mar-23 13:30N 69°45' E 016°45'2 3.4
2018-Mar-23 12:58N 69°45' E 016°50'2 3.4
2018-Mar-23 12:30N 69°45' E 016°54'2 4.0
2018-Mar-23 12:00N 69°45' E 017°00'0 0.7
2018-Mar-23 11:30N 69°45' E 016°59'4 8.9
2018-Mar-23 11:00N 69°49' E 017°07'2 4.8
2018-Mar-23 10:30N 69°51' E 017°11'1 2.8
2018-Mar-23 10:00N 69°52' E 017°11'1 3.0
2018-Mar-23 09:30N 69°54' E 017°12'2 3.0
2018-Mar-23 08:59N 69°55' E 017°13'1 2.3
2018-Mar-23 08:29N 69°55' E 017°16'1 2.6
2018-Mar-23 08:00N 69°54' E 017°15'1 3.0
2018-Mar-23 07:30N 69°52' E 017°12'2 3.7
2018-Mar-23 07:00N 69°53' E 017°07'1 3.0
2018-Mar-23 06:30N 69°53' E 017°10'2 3.7
2018-Mar-23 06:00N 69°53' E 017°16'0 0.7
2018-Mar-23 05:30N 69°53' E 017°15'2 3.2
2018-Mar-23 05:00N 69°55' E 017°17'1 2.2
2018-Mar-23 04:30N 69°54' E 017°15'1 2.6
2018-Mar-23 04:00N 69°53' E 017°13'2 3.8
2018-Mar-23 03:30N 69°52' E 017°08'2 3.9
2018-Mar-23 03:00N 69°53' E 017°02'2 4.0
2018-Mar-23 02:30N 69°53' E 016°56'1 2.0
2018-Mar-23 02:00N 69°54' E 016°59'2 4.1
2018-Mar-23 01:30N 69°54' E 017°05'3 7.0
2018-Mar-23 01:00N 69°56' E 017°12'1 1.3
2018-Mar-23 00:30N 69°55' E 017°12'1 2.9
2018-Mar-23 00:00N 69°55' E 017°08'1 2.9
2018-Mar-22 23:30N 69°54' E 017°04'1 3.0
2018-Mar-22 23:00N 69°54' E 016°60'1 2.9
2018-Mar-22 22:30N 69°54' E 016°56'2 3.3
2018-Mar-22 22:00N 69°54' E 016°51'2 3.2
2018-Mar-22 21:30N 69°54' E 016°47'1 2.2
2018-Mar-22 21:00N 69°54' E 016°49'2 3.8
2018-Mar-22 20:30N 69°54' E 016°55'1 1.5
2018-Mar-22 19:59N 69°54' E 016°53'2 4.3
2018-Mar-22 19:30N 69°55' E 016°58'3 5.1
2018-Mar-22 19:00N 69°55' E 017°06'2 4.4
2018-Mar-22 18:30N 69°57' E 017°07'3 5.5
2018-Mar-22 18:00N 69°60' E 017°08'  
Track history (hours):
 
Tides and Currents Weather Stations Pressure Air Temp Water Temp Dewpoint Dewpoint Depression Visibility Wind Speed Wind Dir Waves Ship Positions

Karelia II

Last reported at 2018-Apr-01 13:39 UTC. Time now 2018-Apr-21 09:54 UTC.
Position N 70°42' E 019°10'.
Warning: this ship's position is 19 days out of date.

Length 60 m; draft 8 m.

Type: Fishing. MMSI: 273425330.

Date/timePositionNaut miles runAvg speedWind from/ knotsBaromVisibWave heightAir tempDewpointWater temp
2018-Apr-01 13:39N 70°42' E 019°10'211.7
2018-Apr-01 13:30N 70°40' E 019°07'611.8
2018-Apr-01 13:00N 70°36' E 018°54'14 0.6
2018-Mar-31 12:01N 70°25' E 018°26'0 4.6
2018-Mar-31 12:00N 70°25' E 018°26'  
2018-Mar-28 19:54N 69°54' E 016°40'1 3.3
2018-Mar-28 19:29N 69°53' E 016°39'2 0.7
2018-Mar-28 17:15N 69°54' E 016°41'0 0.3
2018-Mar-28 15:51N 69°54' E 016°42'4 2.5
2018-Mar-28 14:22N 69°56' E 016°51'1 3.8
2018-Mar-28 13:59N 69°56' E 016°55'2 3.9
2018-Mar-28 13:30N 69°55' E 016°60'1 1.7
2018-Mar-28 13:00N 69°56' E 016°58'2 4.0
2018-Mar-28 12:30N 69°57' E 016°52'1 1.5
2018-Mar-28 11:46N 69°56' E 016°49'0 2.0
2018-Mar-28 11:30N 69°56' E 016°51'2 4.0
2018-Mar-28 11:00N 69°56' E 016°56'2 4.1
2018-Mar-28 10:30N 69°56' E 017°02'1 1.2
2018-Mar-28 09:59N 69°56' E 017°01'2 3.9
2018-Mar-28 09:30N 69°56' E 016°55'2 3.3
2018-Mar-28 09:00N 69°57' E 016°60'1 2.1
2018-Mar-28 08:30N 69°56' E 017°02'2 3.5
2018-Mar-28 08:00N 69°56' E 017°06'2 3.9
2018-Mar-28 07:30N 69°55' E 017°11'1 2.5
2018-Mar-28 06:59N 69°54' E 017°10'2 3.9
2018-Mar-28 06:30N 69°54' E 017°04'1 1.7
2018-Mar-28 06:00N 69°53' E 017°05'2 3.9
2018-Mar-28 05:28N 69°54' E 017°11'1 1.6
2018-Mar-28 05:00N 69°54' E 017°08'1 2.5
2018-Mar-28 04:30N 69°53' E 017°05'2 4.2
2018-Mar-28 04:00N 69°53' E 016°59'1 2.1
2018-Mar-28 03:30N 69°53' E 017°02'2 3.8
2018-Mar-28 02:59N 69°54' E 017°07'2 4.1
2018-Mar-28 02:30N 69°54' E 017°13'2 3.8
2018-Mar-28 02:00N 69°52' E 017°12'2 3.5
2018-Mar-28 01:30N 69°51' E 017°12'2 4.1
2018-Mar-28 01:00N 69°52' E 017°14'2 3.2
2018-Mar-28 00:30N 69°52' E 017°10'0 0.6
2018-Mar-28 00:00N 69°51' E 017°11'2 3.9
2018-Mar-27 23:30N 69°53' E 017°12'4 7.7
2018-Mar-27 23:00N 69°57' E 017°16'510.9
2018-Mar-27 22:30N 70°01' E 017°25'43 7.9
2018-Mar-27 17:02N 70°34' E 018°47'0 3.9
2018-Mar-27 17:00N 70°34' E 018°47'2 3.6
2018-Mar-27 16:30N 70°35' E 018°53'2 3.9
2018-Mar-27 16:00N 70°36' E 018°58'2 3.6
2018-Mar-27 15:30N 70°34' E 019°02'2 3.5
2018-Mar-27 15:00N 70°34' E 019°07'2 4.1
2018-Mar-27 14:29N 70°33' E 019°13'2 3.3
2018-Mar-27 14:00N 70°34' E 019°09'2 3.5
2018-Mar-27 13:30N 70°34' E 019°04'2 4.0
2018-Mar-27 13:00N 70°34' E 018°58'2 3.9
2018-Mar-27 12:30N 70°35' E 018°52'2 3.5
2018-Mar-27 11:59N 70°34' E 018°47'2 4.1
2018-Mar-27 11:29N 70°32' E 018°45'2 3.2
2018-Mar-27 11:00N 70°31' E 018°41'1 2.3
2018-Mar-27 10:29N 70°30' E 018°38'2 3.2
2018-Mar-27 10:00N 70°29' E 018°38'2 3.2
2018-Mar-27 09:30N 70°27' E 018°37'2 3.9
2018-Mar-27 09:00N 70°26' E 018°33'2 4.1
2018-Mar-27 08:30N 70°25' E 018°27'1 0.0
2018-Mar-26 10:34N 70°25' E 018°24'0 2.6
2018-Mar-26 10:31N 70°25' E 018°24'0 0.2
2018-Mar-26 08:43N 70°25' E 018°25'1 3.7
2018-Mar-26 08:30N 70°25' E 018°27'2 4.0
2018-Mar-26 08:00N 70°27' E 018°31'2 4.0
2018-Mar-26 07:30N 70°28' E 018°34'3 1.6
2018-Mar-26 05:30N 70°31' E 018°39'2 3.5
2018-Mar-26 05:00N 70°32' E 018°44'2 3.6
2018-Mar-26 04:30N 70°33' E 018°45'2 3.6
2018-Mar-26 04:00N 70°34' E 018°50'2 3.6
2018-Mar-26 03:30N 70°35' E 018°55'2 3.7
2018-Mar-26 02:59N 70°35' E 019°01'2 3.6
2018-Mar-26 02:30N 70°34' E 019°06'2 3.7
2018-Mar-26 02:00N 70°34' E 019°11'1 1.8
2018-Mar-26 01:31N 70°33' E 019°10'1 2.4
2018-Mar-26 01:00N 70°34' E 019°07'2 3.8
2018-Mar-26 00:29N 70°35' E 019°02'2 3.8
2018-Mar-26 00:00N 70°36' E 018°57'2 3.5
2018-Mar-25 23:23N 70°36' E 018°50'1 3.5
2018-Mar-25 22:59N 70°35' E 018°54'2 3.5
2018-Mar-25 22:30N 70°37' E 018°57'1 1.7
2018-Mar-25 22:00N 70°36' E 018°58'2 3.5
2018-Mar-25 21:30N 70°35' E 018°54'2 3.5
2018-Mar-25 21:00N 70°33' E 018°50'2 3.9
2018-Mar-25 20:30N 70°32' E 018°45'1 0.2
2018-Mar-25 17:17N 70°33' E 018°44'1 3.7
2018-Mar-25 16:59N 70°33' E 018°47'2 3.6
2018-Mar-25 16:30N 70°33' E 018°52'1 2.9
2018-Mar-25 16:00N 70°32' E 018°56'2 3.1
2018-Mar-25 15:30N 70°31' E 019°00'2 4.0
2018-Mar-25 15:00N 70°33' E 018°55'1 2.8
2018-Mar-25 14:30N 70°33' E 018°51'2 3.8
2018-Mar-25 14:00N 70°33' E 018°46'42 6.2
2018-Mar-25 07:17N 70°03' E 017°21'310.0
2018-Mar-25 07:00N 70°01' E 017°16'510.2
2018-Mar-25 06:29N 69°56' E 017°08'5 9.9
2018-Mar-25 06:00N 69°52' E 017°02'5 9.9
2018-Mar-25 05:30N 69°47' E 016°57'2 3.5
2018-Mar-25 04:59N 69°45' E 016°55'2 3.4
2018-Mar-25 04:29N 69°45' E 016°50'2 3.7
2018-Mar-25 04:00N 69°45' E 016°45'2 3.1
2018-Mar-25 03:29N 69°45' E 016°41'1 1.9
2018-Mar-25 03:00N 69°45' E 016°43'1 1.9
2018-Mar-25 02:30N 69°44' E 016°41'2 3.8
2018-Mar-25 02:00N 69°46' E 016°40'2 4.1
2018-Mar-25 01:30N 69°46' E 016°45'2 4.3
2018-Mar-25 00:59N 69°46' E 016°52'2 3.5
2018-Mar-25 00:30N 69°47' E 016°56'1 1.3
2018-Mar-24 23:59N 69°47' E 016°58'2 4.0
2018-Mar-24 23:30N 69°47' E 016°53'2 3.9
2018-Mar-24 23:00N 69°48' E 016°47'2 4.1
2018-Mar-24 22:30N 69°48' E 016°42'1 2.8
2018-Mar-24 22:00N 69°47' E 016°43'2 3.8
2018-Mar-24 21:29N 69°46' E 016°49'2 3.8
2018-Mar-24 21:00N 69°46' E 016°54'2 3.7
2018-Mar-24 20:30N 69°46' E 016°59'1 2.8
2018-Mar-24 20:00N 69°47' E 016°56'1 1.2
2018-Mar-24 19:30N 69°47' E 016°57'2 3.7
2018-Mar-24 19:00N 69°45' E 016°58'1 2.6
2018-Mar-24 18:29N 69°45' E 016°55'1 2.9
2018-Mar-24 18:00N 69°45' E 016°51'2 3.5
2018-Mar-24 17:29N 69°45' E 016°46'2 3.1
2018-Mar-24 16:59N 69°45' E 016°42'1 2.9
2018-Mar-24 16:30N 69°45' E 016°46'2 3.1
2018-Mar-24 16:00N 69°44' E 016°41'2 3.7
2018-Mar-24 15:30N 69°46' E 016°39'2 3.6
2018-Mar-24 15:00N 69°48' E 016°38'2 3.7
2018-Mar-24 14:29N 69°50' E 016°38'2 3.9
2018-Mar-24 14:00N 69°52' E 016°38'2 4.5
2018-Mar-24 13:30N 69°53' E 016°42'1 2.2
2018-Mar-24 13:00N 69°54' E 016°44'2 3.9
2018-Mar-24 12:29N 69°54' E 016°38'2 3.8
2018-Mar-24 12:00N 69°52' E 016°37'2 4.1
2018-Mar-24 11:30N 69°50' E 016°38'2 3.8
2018-Mar-24 11:00N 69°48' E 016°40'2 3.3
2018-Mar-24 10:30N 69°47' E 016°41'2 4.0
2018-Mar-24 10:00N 69°47' E 016°46'1 2.9
2018-Mar-24 09:29N 69°47' E 016°42'2 3.2
2018-Mar-24 09:00N 69°48' E 016°38'2 3.8
2018-Mar-24 08:30N 69°49' E 016°41'5 9.1
2018-Mar-24 08:00N 69°52' E 016°52'611.4
2018-Mar-24 07:30N 69°55' E 017°06'611.2
2018-Mar-24 07:00N 69°59' E 017°15'13 1.2
2018-Mar-23 20:43N 69°54' E 016°41'1 3.6
2018-Mar-23 20:30N 69°54' E 016°39'2 3.7
2018-Mar-23 20:00N 69°52' E 016°39'2 4.3
2018-Mar-23 19:29N 69°50' E 016°39'4 8.7
2018-Mar-23 19:00N 69°45' E 016°39'2 4.5
2018-Mar-23 18:29N 69°47' E 016°44'3 7.2
2018-Mar-23 18:00N 69°50' E 016°49'4 8.1
2018-Mar-23 17:30N 69°54' E 016°54'3 5.8
2018-Mar-23 17:00N 69°51' E 016°55'1 1.2
2018-Mar-23 16:30N 69°50' E 016°55'2 3.1
2018-Mar-23 16:00N 69°49' E 016°57'1 2.4
2018-Mar-23 15:30N 69°48' E 016°56'1 2.9
2018-Mar-23 14:59N 69°47' E 016°52'2 3.4
2018-Mar-23 14:30N 69°46' E 016°48'2 3.2
2018-Mar-23 14:00N 69°45' E 016°44'0 0.6
2018-Mar-23 13:30N 69°45' E 016°45'2 3.4
2018-Mar-23 12:58N 69°45' E 016°50'2 3.4
2018-Mar-23 12:30N 69°45' E 016°54'2 4.0
2018-Mar-23 12:00N 69°45' E 017°00'0 0.7
2018-Mar-23 11:30N 69°45' E 016°59'4 8.9
2018-Mar-23 11:00N 69°49' E 017°07'2 4.8
2018-Mar-23 10:30N 69°51' E 017°11'1 2.8
2018-Mar-23 10:00N 69°52' E 017°11'1 3.0
2018-Mar-23 09:30N 69°54' E 017°12'2 3.0
2018-Mar-23 08:59N 69°55' E 017°13'1 2.3
2018-Mar-23 08:29N 69°55' E 017°16'1 2.6
2018-Mar-23 08:00N 69°54' E 017°15'1 3.0
2018-Mar-23 07:30N 69°52' E 017°12'2 3.7
2018-Mar-23 07:00N 69°53' E 017°07'1 3.0
2018-Mar-23 06:30N 69°53' E 017°10'2 3.7
2018-Mar-23 06:00N 69°53' E 017°16'0 0.7
2018-Mar-23 05:30N 69°53' E 017°15'2 3.2
2018-Mar-23 05:00N 69°55' E 017°17'1 2.2
2018-Mar-23 04:30N 69°54' E 017°15'1 2.6
2018-Mar-23 04:00N 69°53' E 017°13'2 3.8
2018-Mar-23 03:30N 69°52' E 017°08'2 3.9
2018-Mar-23 03:00N 69°53' E 017°02'2 4.0
2018-Mar-23 02:30N 69°53' E 016°56'1 2.0
2018-Mar-23 02:00N 69°54' E 016°59'2 4.1
2018-Mar-23 01:30N 69°54' E 017°05'3 7.0
2018-Mar-23 01:00N 69°56' E 017°12'1 1.3
2018-Mar-23 00:30N 69°55' E 017°12'1 2.9
2018-Mar-23 00:00N 69°55' E 017°08'1 2.9
2018-Mar-22 23:30N 69°54' E 017°04'1 3.0
2018-Mar-22 23:00N 69°54' E 016°60'1 2.9
2018-Mar-22 22:30N 69°54' E 016°56'2 3.3
2018-Mar-22 22:00N 69°54' E 016°51'2 3.2
2018-Mar-22 21:30N 69°54' E 016°47'1 2.2
2018-Mar-22 21:00N 69°54' E 016°49'2 3.8
2018-Mar-22 20:30N 69°54' E 016°55'1 1.5
2018-Mar-22 19:59N 69°54' E 016°53'2 4.3
2018-Mar-22 19:30N 69°55' E 016°58'3 5.1
2018-Mar-22 19:00N 69°55' E 017°06'2 4.4
2018-Mar-22 18:30N 69°57' E 017°07'3 5.5
2018-Mar-22 18:00N 69°60' E 017°08'  

Dump ship's entire track history